Time;durP1;ratioP1;P1;durP2;ratioP2;P2;SDS_P1;SDS_P2;PMS_P1;PMS_P2;Temp;Humidity;BMP_temperature;BMP_pressure;BME280_temperature;BME280_humidity;BME280_pressure;Samples;Min_cycle;Max_cycle;Signal;HPM_P1;HPM_P2
2021/12/28 00:01:58;;;;;;;1.45;0.80;;;18.00;44.10;;;;;;5028566;28;20049;-84
2021/12/28 00:04:24;;;;;;;1.65;1.00;;;17.90;44.00;;;;;;5028654;28;20132;-85
2021/12/28 00:06:49;;;;;;;2.05;0.90;;;18.00;44.10;;;;;;5011409;28;20054;-85
2021/12/28 00:09:15;;;;;;;1.77;0.80;;;17.90;44.10;;;;;;4989277;28;20039;-85
2021/12/28 00:11:40;;;;;;;3.80;0.82;;;17.90;44.00;;;;;;4988578;28;20485;-85
2021/12/28 00:14:07;;;;;;;2.13;1.00;;;17.90;44.10;;;;;;4989058;28;20391;-85
2021/12/28 00:17:58;;;;;;;1.58;0.85;;;17.90;44.00;;;;;;4989347;28;20057;-85
2021/12/28 00:19:18;;;;;;;1.77;0.70;;;17.90;44.10;;;;;;4998264;28;20497;-85
2021/12/28 00:21:43;;;;;;;1.40;0.80;;;17.90;44.10;;;;;;5008764;28;20129;-85
2021/12/28 00:24:09;;;;;;;1.63;0.80;;;17.90;44.10;;;;;;5008490;28;20137;-85
2021/12/28 00:26:34;;;;;;;1.45;0.80;;;17.90;44.10;;;;;;5007970;28;20057;-84
2021/12/28 00:29:00;;;;;;;1.98;1.00;;;17.80;44.00;;;;;;5008520;28;20650;-84
2021/12/28 00:31:26;;;;;;;1.88;0.88;;;17.90;44.10;;;;;;5008530;28;20378;-85
2021/12/28 00:33:53;;;;;;;3.60;1.00;;;17.90;44.10;;;;;;5007635;28;20107;-86
2021/12/28 00:36:18;;;;;;;1.73;0.90;;;17.80;44.10;;;;;;5008655;28;20069;-86
2021/12/28 00:38:44;;;;;;;2.05;0.88;;;17.90;44.10;;;;;;5008333;28;20045;-86
2021/12/28 00:41:09;;;;;;;2.17;0.80;;;17.80;44.00;;;;;;5009124;28;20057;-86
2021/12/28 00:43:35;;;;;;;1.92;0.90;;;17.80;44.00;;;;;;4992024;28;20685;-85
2021/12/28 00:46:01;;;;;;;1.58;0.80;;;17.80;44.00;;;;;;5008781;28;20046;-86
2021/12/28 00:48:26;;;;;;;1.50;0.90;;;17.80;44.10;;;;;;5016284;28;20145;-86
2021/12/28 00:50:52;;;;;;;1.70;1.02;;;17.80;44.00;;;;;;5028206;28;20046;-86
2021/12/28 00:53:18;;;;;;;1.63;0.85;;;17.80;44.10;;;;;;5027539;28;20058;-86
2021/12/28 00:55:43;;;;;;;1.40;0.80;;;17.80;44.10;;;;;;5027083;28;20064;-86
2021/12/28 00:58:09;;;;;;;1.55;0.70;;;17.80;44.10;;;;;;5028054;28;20041;-85
2021/12/28 01:00:36;;;;;;;1.73;0.90;;;17.80;44.10;;;;;;5028394;28;20136;-86
2021/12/28 01:03:03;;;;;;;1.83;0.98;;;17.80;44.10;;;;;;5026198;28;20256;-86
2021/12/28 01:05:28;;;;;;;1.63;0.88;;;17.70;44.00;;;;;;5028112;28;20627;-86
2021/12/28 01:07:55;;;;;;;2.67;1.10;;;17.70;44.00;;;;;;5027177;28;20042;-86
2021/12/28 01:10:23;;;;;;;1.90;1.00;;;17.70;44.10;;;;;;5027838;28;20044;-86
2021/12/28 01:12:52;;;;;;;1.25;0.65;;;17.70;44.10;;;;;;5027832;28;20045;-85
2021/12/28 01:15:18;;;;;;;1.65;0.80;;;17.70;44.10;;;;;;5026876;28;20111;-85
2021/12/28 01:17:44;;;;;;;2.53;1.00;;;17.10;43.70;;;;;;5028365;28;20041;-85
2021/12/28 01:20:15;;;;;;;1.77;0.90;;;17.70;44.10;;;;;;5027368;28;20095;-85
2021/12/28 01:22:41;;;;;;;1.98;1.05;;;17.70;44.10;;;;;;5027003;28;20046;-85
2021/12/28 01:25:07;;;;;;;2.03;0.90;;;17.70;44.10;;;;;;5027875;28;20060;-85
2021/12/28 01:27:33;;;;;;;1.65;0.90;;;17.70;44.10;;;;;;5027994;28;20141;-85
2021/12/28 01:29:59;;;;;;;1.63;0.90;;;17.70;44.10;;;;;;5026258;28;20144;-85
2021/12/28 01:32:25;;;;;;;1.55;0.73;;;17.70;44.10;;;;;;5027587;28;20083;-85
2021/12/28 01:34:50;;;;;;;1.30;0.80;;;17.70;44.10;;;;;;5027585;28;20491;-85
2021/12/28 01:37:16;;;;;;;2.25;0.90;;;17.60;44.00;;;;;;5026870;28;20136;-86
2021/12/28 01:39:41;;;;;;;1.40;0.70;;;17.60;44.10;;;;;;5029283;28;20056;-86
2021/12/28 01:42:07;;;;;;;1.65;0.70;;;18.80;44.70;;;;;;5027837;28;20052;-85
2021/12/28 01:44:33;;;;;;;1.60;0.80;;;17.60;44.10;;;;;;5047021;28;20061;-85
2021/12/28 01:46:59;;;;;;;2.45;0.70;;;17.60;44.10;;;;;;5031292;28;20106;-86
2021/12/28 01:49:24;;;;;;;2.05;0.93;;;17.60;44.10;;;;;;5030917;28;20057;-85
2021/12/28 01:51:50;;;;;;;2.05;0.77;;;17.60;44.10;;;;;;5030527;28;20050;-86
2021/12/28 01:54:15;;;;;;;1.40;0.80;;;17.60;44.10;;;;;;5030859;28;20562;-85
2021/12/28 01:56:44;;;;;;;1.70;0.90;;;17.60;44.10;;;;;;5030861;28;20451;-85
2021/12/28 01:59:10;;;;;;;1.33;0.73;;;17.60;44.10;;;;;;5030388;28;20501;-86
2021/12/28 02:01:36;;;;;;;1.55;0.63;;;17.60;44.10;;;;;;5030631;28;20129;-85
2021/12/28 02:04:11;;;;;;;1.90;0.80;;;17.60;44.10;;;;;;5030302;28;20124;-85
2021/12/28 02:06:37;;;;;;;1.40;0.70;;;17.60;44.20;;;;;;5031012;28;20050;-86
2021/12/28 02:09:03;;;;;;;1.42;0.68;;;18.20;44.50;;;;;;5030818;28;20046;-85
2021/12/28 02:11:28;;;;;;;1.80;0.70;;;17.60;44.20;;;;;;5030080;28;20045;-85
2021/12/28 02:13:54;;;;;;;1.60;0.70;;;17.60;44.20;;;;;;5030520;28;20042;-85
2021/12/28 02:16:19;;;;;;;1.77;0.85;;;17.60;44.20;;;;;;5013881;28;20084;-86
2021/12/28 02:18:45;;;;;;;1.58;0.80;;;17.60;44.20;;;;;;5029527;28;20464;-85
2021/12/28 02:21:11;;;;;;;1.55;0.88;;;17.80;44.30;;;;;;5030478;28;20053;-86
2021/12/28 02:23:36;;;;;;;1.83;0.80;;;17.60;44.20;;;;;;5017742;28;20504;-86
2021/12/28 02:26:02;;;;;;;1.85;0.82;;;17.60;44.30;;;;;;5029740;28;20136;-86
2021/12/28 02:28:28;;;;;;;1.30;0.70;;;17.60;44.20;;;;;;5030299;28;20049;-85
2021/12/28 02:30:56;;;;;;;1.00;0.52;;;17.60;44.20;;;;;;4995750;28;20089;-85
2021/12/28 02:33:25;;;;;;;1.60;0.80;;;17.60;44.20;;;;;;5009903;28;20140;-85
2021/12/28 02:35:55;;;;;;;1.25;0.60;;;17.60;44.20;;;;;;5010198;28;20586;-85
2021/12/28 02:38:21;;;;;;;1.63;0.90;;;17.60;44.20;;;;;;5010658;28;20062;-85
2021/12/28 02:40:47;;;;;;;1.50;0.80;;;17.60;44.20;;;;;;5009711;28;20137;-85
2021/12/28 02:43:14;;;;;;;1.20;0.70;;;17.60;44.30;;;;;;4995848;28;20077;-85
2021/12/28 02:45:47;;;;;;;1.50;0.80;;;18.80;44.90;;;;;;4990696;28;20046;-85
2021/12/28 02:48:12;;;;;;;2.10;0.73;;;17.60;44.20;;;;;;4989814;28;20046;-85
2021/12/28 02:50:42;;;;;;;1.00;0.70;;;17.60;44.30;;;;;;4990961;28;20038;-85
2021/12/28 02:53:08;;;;;;;1.52;0.70;;;17.60;44.20;;;;;;4990808;28;20081;-85
2021/12/28 02:55:34;;;;;;;1.15;0.65;;;17.60;44.30;;;;;;4990999;28;20502;-85
2021/12/28 02:58:02;;;;;;;1.63;0.80;;;17.60;44.20;;;;;;4990841;28;20053;-85
2021/12/28 03:00:48;;;;;;;1.42;0.70;;;17.60;44.30;;;;;;4989967;28;20129;-85
2021/12/28 03:03:19;;;;;;;1.13;0.70;;;17.60;44.30;;;;;;4990626;28;20061;-86
2021/12/28 03:05:47;;;;;;;1.60;0.90;;;17.60;44.20;;;;;;4990384;28;20101;-85
2021/12/28 03:08:13;;;;;;;1.80;0.68;;;17.60;44.30;;;;;;4989507;28;20046;-86
2021/12/28 03:10:39;;;;;;;1.58;0.80;;;17.60;44.30;;;;;;4990385;28;20072;-86
2021/12/28 03:13:05;;;;;;;1.15;0.80;;;17.50;44.20;;;;;;4990348;28;20743;-85
2021/12/28 03:15:30;;;;;;;1.35;0.70;;;17.50;44.20;;;;;;4989575;28;20046;-85
2021/12/28 03:17:56;;;;;;;1.52;0.80;;;17.60;44.30;;;;;;4990202;28;20054;-86
2021/12/28 03:20:21;;;;;;;1.73;1.00;;;17.60;44.30;;;;;;5003582;28;20054;-86
2021/12/28 03:22:47;;;;;;;1.67;0.70;;;17.50;44.20;;;;;;5009128;28;20100;-85
2021/12/28 03:25:12;;;;;;;4.75;0.80;;;17.60;44.30;;;;;;5009946;28;20498;-85
2021/12/28 03:27:38;;;;;;;1.70;0.75;;;17.50;44.20;;;;;;5009436;28;20048;-85
2021/12/28 03:30:06;;;;;;;1.38;0.70;;;17.60;44.30;;;;;;5008573;28;20046;-85
2021/12/28 03:32:31;;;;;;;1.38;0.80;;;17.50;44.30;;;;;;5013598;28;20140;-86
2021/12/28 03:34:57;;;;;;;1.77;0.80;;;17.50;44.30;;;;;;5028965;28;20143;-85
2021/12/28 03:37:22;;;;;;;1.42;0.70;;;17.50;44.30;;;;;;5028243;28;20049;-86
2021/12/28 03:39:48;;;;;;;1.27;0.70;;;17.50;44.30;;;;;;5029123;28;20049;-86
2021/12/28 03:42:13;;;;;;;1.63;0.73;;;17.50;44.30;;;;;;5028758;28;20052;-85
2021/12/28 03:44:39;;;;;;;1.80;0.85;;;17.50;44.30;;;;;;5028486;28;20058;-85
2021/12/28 03:47:06;;;;;;;1.40;0.75;;;17.50;44.30;;;;;;5030387;28;20556;-85
2021/12/28 03:49:33;;;;;;;1.40;0.77;;;17.50;44.30;;;;;;5029648;28;20045;-85
2021/12/28 03:51:59;;;;;;;1.58;0.60;;;17.50;44.30;;;;;;5028914;28;20052;-86
2021/12/28 03:54:24;;;;;;;1.23;0.65;;;17.50;44.30;;;;;;5028915;28;20041;-85
2021/12/28 03:56:50;;;;;;;1.33;0.77;;;17.50;44.30;;;;;;5027864;28;20856;-86
2021/12/28 03:59:15;;;;;;;1.23;0.70;;;17.50;44.30;;;;;;5028638;28;20115;-85
2021/12/28 04:01:41;;;;;;;1.50;0.73;;;17.50;44.30;;;;;;5028552;28;20052;-85
2021/12/28 04:04:06;;;;;;;1.38;0.75;;;17.50;44.30;;;;;;5027815;28;20053;-86
2021/12/28 04:06:32;;;;;;;1.33;0.73;;;18.00;44.60;;;;;;5028029;28;20140;-85
2021/12/28 04:08:59;;;;;;;1.38;0.70;;;17.50;44.30;;;;;;5028520;28;20084;-85
2021/12/28 04:11:25;;;;;;;1.48;0.70;;;17.50;44.30;;;;;;5027533;28;20050;-86
2021/12/28 04:13:52;;;;;;;1.20;0.68;;;17.50;44.40;;;;;;5028701;28;20052;-85
2021/12/28 04:16:18;;;;;;;1.13;0.52;;;17.50;44.40;;;;;;5028558;28;20052;-85
2021/12/28 04:18:43;;;;;;;1.63;0.90;;;17.50;44.40;;;;;;5032237;28;20052;-85
2021/12/28 04:21:09;;;;;;;1.20;0.63;;;19.00;45.20;;;;;;5031692;28;20489;-85
2021/12/28 04:23:35;;;;;;;1.58;0.80;;;17.50;44.40;;;;;;5031649;28;20051;-86
2021/12/28 04:26:01;;;;;;;1.17;0.60;;;18.90;45.20;;;;;;5031022;28;20071;-85
2021/12/28 04:28:35;;;;;;;1.65;0.80;;;17.50;44.40;;;;;;5047925;28;20048;-85
2021/12/28 04:31:01;;;;;;;1.55;0.73;;;17.50;44.40;;;;;;5031525;28;20060;-85
2021/12/28 04:33:26;;;;;;;1.42;0.68;;;17.50;44.40;;;;;;5020124;28;20138;-85
2021/12/28 04:35:52;;;;;;;1.67;0.70;;;17.50;44.50;;;;;;5028170;28;20179;-85
2021/12/28 04:38:17;;;;;;;1.20;0.60;;;17.50;45.20;;;;;;5011943;28;20042;-85
2021/12/28 04:40:43;;;;;;;1.23;0.70;;;17.50;44.50;;;;;;5027477;28;20053;-85
2021/12/28 04:43:10;;;;;;;1.33;0.70;;;17.60;44.60;;;;;;5028404;28;20052;-84
2021/12/28 04:45:37;;;;;;;1.23;0.70;;;17.60;44.60;;;;;;5028619;28;20048;-85
2021/12/28 04:48:03;;;;;;;1.52;0.63;;;17.60;44.70;;;;;;5027786;28;20060;-85
2021/12/28 04:50:29;;;;;;;1.30;0.65;;;17.60;44.60;;;;;;5028415;28;20052;-85
2021/12/28 04:52:57;;;;;;;1.35;0.80;;;17.60;44.70;;;;;;5027578;28;20084;-85
2021/12/28 04:55:23;;;;;;;1.67;0.70;;;17.60;44.70;;;;;;5028340;28;20155;-85
2021/12/28 04:57:48;;;;;;;1.35;0.70;;;17.60;44.70;;;;;;5028354;28;20500;-85
2021/12/28 05:00:19;;;;;;;1.88;0.95;;;17.80;44.90;;;;;;5036433;28;20052;-85
2021/12/28 05:02:44;;;;;;;1.60;0.80;;;17.70;44.90;;;;;;5051173;28;20040;-85
2021/12/28 05:05:11;;;;;;;1.75;0.80;;;17.70;44.80;;;;;;5051133;28;20135;-85
2021/12/28 05:07:36;;;;;;;1.75;0.80;;;18.80;45.40;;;;;;5050361;28;20221;-85
2021/12/28 05:10:03;;;;;;;1.42;0.90;;;17.70;44.90;;;;;;5034633;28;20111;-85
2021/12/28 05:12:29;;;;;;;1.75;0.90;;;17.70;44.90;;;;;;5051186;28;20526;-85
2021/12/28 05:14:57;;;;;;;1.35;0.77;;;17.80;44.90;;;;;;5050183;28;20071;-85
2021/12/28 05:17:22;;;;;;;1.13;0.70;;;17.70;44.90;;;;;;5051214;28;20198;-85
2021/12/28 05:19:48;;;;;;;2.20;1.13;;;17.80;44.90;;;;;;5054735;28;20618;-85
2021/12/28 05:22:13;;;;;;;1.45;0.90;;;17.80;45.00;;;;;;5051597;28;20049;-85
2021/12/28 05:24:39;;;;;;;1.48;0.90;;;17.80;45.00;;;;;;5054554;28;20045;-85
2021/12/28 05:27:05;;;;;;;1.75;0.80;;;17.80;44.90;;;;;;5054878;28;20127;-85
2021/12/28 05:29:30;;;;;;;1.98;0.90;;;17.80;44.90;;;;;;5053821;28;20055;-85
2021/12/28 05:31:56;;;;;;;1.40;0.80;;;17.90;44.90;;;;;;5054430;28;20520;-85
2021/12/28 05:34:22;;;;;;;1.27;0.60;;;17.80;44.90;;;;;;5054365;28;20056;-85
2021/12/28 05:36:47;;;;;;;1.73;0.82;;;17.90;44.90;;;;;;5053877;28;20036;-84
2021/12/28 05:39:13;;;;;;;1.98;0.90;;;17.90;44.90;;;;;;5054293;28;20248;-85
2021/12/28 05:41:38;;;;;;;1.40;0.80;;;17.90;45.60;;;;;;5054587;28;20053;-85
2021/12/28 05:44:04;;;;;;;1.40;0.90;;;17.90;44.80;;;;;;5053899;28;20044;-86
2021/12/28 05:46:30;;;;;;;1.67;0.80;;;17.90;44.80;;;;;;5054425;28;20522;-85
2021/12/28 05:48:56;;;;;;;1.40;0.73;;;17.90;44.80;;;;;;5054645;28;20060;-85
2021/12/28 05:51:21;;;;;;;1.05;0.70;;;18.00;44.80;;;;;;5053320;28;20488;-85
2021/12/28 05:53:47;;;;;;;1.30;0.75;;;18.00;44.80;;;;;;5054167;28;20650;-85
2021/12/28 05:56:12;;;;;;;0.75;0.52;;;18.00;44.80;;;;;;5050613;28;20144;-85
2021/12/28 05:58:38;;;;;;;1.70;0.80;;;18.00;44.80;;;;;;5054028;28;20049;-85
2021/12/28 06:01:04;;;;;;;1.65;0.73;;;18.00;44.70;;;;;;5051880;28;20044;-85
2021/12/28 06:03:29;;;;;;;1.13;0.60;;;18.00;44.70;;;;;;5053158;28;20059;-85
2021/12/28 06:05:55;;;;;;;1.38;0.70;;;18.00;44.70;;;;;;5072103;28;20040;-85
2021/12/28 06:08:20;;;;;;;1.50;0.70;;;18.00;44.70;;;;;;5072099;28;20487;-85
2021/12/28 06:10:46;;;;;;;0.90;0.55;;;18.00;44.70;;;;;;5049659;28;20063;-85
2021/12/28 06:13:11;;;;;;;1.35;0.80;;;18.00;44.70;;;;;;5054048;28;20087;-85
2021/12/28 06:15:37;;;;;;;1.80;0.85;;;18.00;44.70;;;;;;5053881;28;20040;-85
2021/12/28 06:18:03;;;;;;;1.58;0.75;;;18.00;44.70;;;;;;5053424;28;20702;-85
2021/12/28 06:20:28;;;;;;;1.40;0.80;;;18.00;44.70;;;;;;5053445;28;20056;-85
2021/12/28 06:22:54;;;;;;;1.10;0.60;;;18.00;44.60;;;;;;5053813;28;20045;-84
2021/12/28 06:25:19;;;;;;;1.42;0.80;;;18.00;44.60;;;;;;5053048;28;20453;-85
2021/12/28 06:27:45;;;;;;;1.10;0.60;;;18.00;44.60;;;;;;5053575;28;20135;-85
2021/12/28 06:30:10;;;;;;;0.85;0.60;;;18.00;44.60;;;;;;5038629;28;20053;-85
2021/12/28 06:32:36;;;;;;;0.98;0.70;;;18.00;44.60;;;;;;4999123;28;20053;-85
2021/12/28 06:35:02;;;;;;;1.20;0.65;;;18.00;44.60;;;;;;5022839;28;20100;-85
2021/12/28 06:37:27;;;;;;;1.13;0.60;;;18.30;44.80;;;;;;5011715;28;20397;-85
2021/12/28 06:39:53;;;;;;;1.55;0.70;;;18.00;44.60;;;;;;5007801;28;20398;-84
2021/12/28 06:42:19;;;;;;;1.05;0.70;;;18.00;44.60;;;;;;5010258;28;20053;-84
2021/12/28 06:44:46;;;;;;;1.40;0.60;;;18.00;44.60;;;;;;5010008;28;20645;-84
2021/12/28 06:47:12;;;;;;;1.10;0.50;;;18.00;44.70;;;;;;5008888;28;20050;-84
2021/12/28 06:49:37;;;;;;;1.23;0.50;;;18.10;44.70;;;;;;5039478;28;20049;-85
2021/12/28 06:52:03;;;;;;;1.10;0.60;;;18.00;44.70;;;;;;5041852;28;20148;-84
2021/12/28 06:54:29;;;;;;;1.02;0.50;;;18.20;44.80;;;;;;5039958;28;20040;-86
2021/12/28 06:56:54;;;;;;;1.05;0.60;;;17.90;44.50;;;;;;5052616;28;20041;-86
2021/12/28 06:59:20;;;;;;;1.55;0.65;;;18.00;44.60;;;;;;5053235;28;20045;-86
2021/12/28 07:01:45;;;;;;;1.35;0.52;;;18.10;44.70;;;;;;5048588;28;20078;-85
2021/12/28 07:04:11;;;;;;;0.85;0.50;;;18.10;44.70;;;;;;5033574;28;20037;-86
2021/12/28 07:06:36;;;;;;;1.25;0.60;;;18.10;44.70;;;;;;5023335;28;20106;-86
2021/12/28 07:09:02;;;;;;;1.23;0.65;;;18.00;44.60;;;;;;4997189;28;20509;-86
2021/12/28 07:11:28;;;;;;;1.02;0.60;;;18.10;44.70;;;;;;5007233;28;20064;-84
2021/12/28 07:13:53;;;;;;;1.10;0.60;;;18.00;44.60;;;;;;5001589;28;20049;-86
2021/12/28 07:16:19;;;;;;;0.65;0.40;;;18.00;44.60;;;;;;5009126;28;20057;-84
2021/12/28 07:18:45;;;;;;;1.35;0.70;;;18.10;44.70;;;;;;5009514;28;20061;-85
2021/12/28 07:21:10;;;;;;;1.33;0.60;;;18.00;44.60;;;;;;5009095;28;20582;-84
2021/12/28 07:23:36;;;;;;;0.70;0.50;;;18.00;44.60;;;;;;5008910;28;20057;-84
2021/12/28 07:26:02;;;;;;;0.98;0.60;;;18.00;44.70;;;;;;5008352;28;20054;-84
2021/12/28 07:28:27;;;;;;;1.13;0.57;;;18.00;44.60;;;;;;5003735;28;20038;-84
2021/12/28 07:30:53;;;;;;;1.40;0.73;;;18.10;44.70;;;;;;5009063;28;20045;-84
2021/12/28 07:33:19;;;;;;;1.40;0.60;;;18.10;44.70;;;;;;5008782;28;20046;-84
2021/12/28 07:35:44;;;;;;;1.02;0.50;;;18.00;44.60;;;;;;5006763;28;20112;-85
2021/12/28 07:38:10;;;;;;;1.63;0.60;;;18.00;44.60;;;;;;5005811;28;20545;-84
2021/12/28 07:40:35;;;;;;;1.75;0.60;;;18.00;44.60;;;;;;5008513;28;20370;-84
2021/12/28 07:43:01;;;;;;;0.60;0.40;;;18.10;44.70;;;;;;5008032;28;20559;-85
2021/12/28 07:45:26;;;;;;;1.20;0.60;;;18.10;44.70;;;;;;5007971;28;20049;-84
2021/12/28 07:47:52;;;;;;;1.17;0.50;;;18.10;44.70;;;;;;5014555;28;20417;-86
2021/12/28 07:50:18;;;;;;;1.60;0.70;;;18.00;44.60;;;;;;5008583;28;20041;-84
2021/12/28 07:52:44;;;;;;;0.90;0.57;;;18.60;44.90;;;;;;5008921;28;20050;-86
2021/12/28 07:55:09;;;;;;;0.75;0.40;;;18.00;44.60;;;;;;5008744;28;20046;-86
2021/12/28 07:57:35;;;;;;;1.35;0.70;;;18.10;44.70;;;;;;5008222;28;20057;-85
2021/12/28 08:00:03;;;;;;;0.77;0.50;;;18.10;44.70;;;;;;5008822;28;20038;-86
2021/12/28 08:02:29;;;;;;;1.30;0.50;;;18.10;44.70;;;;;;4997791;28;20050;-86
2021/12/28 08:04:57;;;;;;;0.88;0.50;;;19.50;45.40;;;;;;4989730;28;20100;-85
2021/12/28 08:07:23;;;;;;;1.73;0.50;;;18.00;44.60;;;;;;4987167;28;20090;-85
2021/12/28 08:09:48;;;;;;;1.17;0.50;;;18.00;44.60;;;;;;4968966;28;20101;-85
2021/12/28 08:12:14;;;;;;;0.85;0.57;;;18.10;44.70;;;;;;4975832;28;20507;-85
2021/12/28 08:14:39;;;;;;;1.95;0.60;;;18.10;44.70;;;;;;4988494;28;20057;-85
2021/12/28 08:17:05;;;;;;;2.58;0.60;;;18.00;44.60;;;;;;4988153;28;20039;-85
2021/12/28 08:19:31;;;;;;;1.00;0.43;;;18.10;44.70;;;;;;4988508;28;20510;-84
2021/12/28 08:21:56;;;;;;;1.10;0.50;;;19.30;45.30;;;;;;5008776;28;20076;-85
2021/12/28 08:24:22;;;;;;;1.67;0.50;;;18.10;44.70;;;;;;5027335;28;20139;-85
2021/12/28 08:26:47;;;;;;;0.82;0.50;;;18.00;44.60;;;;;;5028298;28;20045;-85
2021/12/28 08:29:13;;;;;;;1.10;0.50;;;18.00;44.70;;;;;;5029168;28;20053;-85
2021/12/28 08:31:39;;;;;;;1.45;0.50;;;18.10;44.70;;;;;;5027949;28;20053;-85
2021/12/28 08:34:05;;;;;;;1.17;0.50;;;18.10;44.70;;;;;;5028145;28;20061;-85
2021/12/28 08:36:30;;;;;;;0.90;0.40;;;18.70;45.00;;;;;;5026339;28;20048;-84
2021/12/28 08:38:56;;;;;;;1.25;0.77;;;18.10;44.70;;;;;;5026845;28;20045;-85
2021/12/28 08:41:21;;;;;;;1.33;0.68;;;18.10;44.70;;;;;;5028030;28;20085;-85
2021/12/28 08:43:47;;;;;;;1.77;0.60;;;18.10;44.70;;;;;;5028191;28;20057;-85
2021/12/28 08:46:13;;;;;;;1.55;0.60;;;18.10;44.70;;;;;;5027687;28;20463;-84
2021/12/28 08:48:38;;;;;;;1.02;0.50;;;18.10;44.70;;;;;;5025787;28;20037;-85
2021/12/28 08:51:04;;;;;;;1.13;0.50;;;18.10;44.70;;;;;;4996925;28;20142;-85
2021/12/28 08:53:29;;;;;;;1.10;0.50;;;18.10;44.70;;;;;;4970526;28;20035;-86
2021/12/28 08:55:55;;;;;;;1.42;0.60;;;18.00;44.60;;;;;;4962095;28;20043;-84
2021/12/28 08:58:21;;;;;;;0.70;0.40;;;18.10;44.70;;;;;;4959373;28;20051;-85
2021/12/28 09:00:46;;;;;;;0.95;0.47;;;18.10;44.70;;;;;;4972420;28;20502;-84
2021/12/28 09:03:12;;;;;;;1.60;0.50;;;18.00;44.60;;;;;;4972612;28;20110;-84
2021/12/28 09:05:38;;;;;;;1.33;0.50;;;18.00;44.60;;;;;;4967030;28;20048;-84
2021/12/28 09:08:08;;;;;;;0.82;0.43;;;18.10;44.70;;;;;;4964011;28;20047;-85
2021/12/28 09:10:33;;;;;;;0.98;0.52;;;18.00;44.70;;;;;;4963299;28;20110;-84
2021/12/28 09:12:59;;;;;;;1.08;0.50;;;18.10;44.70;;;;;;4962368;28;20057;-85
2021/12/28 09:15:24;;;;;;;0.90;0.40;;;18.10;44.70;;;;;;4963274;28;20127;-85
2021/12/28 09:17:50;;;;;;;2.05;0.50;;;18.00;44.70;;;;;;4958241;28;20172;-83
2021/12/28 09:20:18;;;;;;;0.93;0.50;;;18.00;44.70;;;;;;5005904;28;20065;-83
2021/12/28 09:22:44;;;;;;;1.23;0.52;;;18.10;44.70;;;;;;5011477;28;20124;-83
2021/12/28 09:25:10;;;;;;;1.85;0.60;;;18.10;44.70;;;;;;5011903;28;20134;-83
2021/12/28 09:27:35;;;;;;;1.75;0.32;;;18.10;44.70;;;;;;5007448;28;20459;-83
2021/12/28 09:30:01;;;;;;;0.93;0.50;;;18.10;44.80;;;;;;5008696;28;20038;-83
2021/12/28 09:32:27;;;;;;;1.00;0.50;;;18.00;44.70;;;;;;5000949;28;20900;-83
2021/12/28 09:34:53;;;;;;;1.40;0.52;;;18.10;44.90;;;;;;5008150;28;20046;-85
2021/12/28 09:37:21;;;;;;;1.77;0.50;;;18.10;44.90;;;;;;4994934;28;20045;-86
2021/12/28 09:39:47;;;;;;;2.08;0.65;;;18.10;44.80;;;;;;4991809;28;20050;-85
2021/12/28 09:42:13;;;;;;;2.25;0.60;;;18.10;44.80;;;;;;5001235;28;20038;-86
2021/12/28 09:44:38;;;;;;;1.67;0.60;;;18.30;45.00;;;;;;5005877;28;20045;-82
2021/12/28 09:47:05;;;;;;;2.58;0.50;;;18.10;45.00;;;;;;5004183;28;20107;-85
2021/12/28 09:49:33;;;;;;;2.53;0.60;;;18.10;45.00;;;;;;4987199;28;20084;-80
2021/12/28 09:51:59;;;;;;;2.55;0.50;;;18.10;45.00;;;;;;5005178;28;20129;-80
2021/12/28 09:54:26;;;;;;;1.73;0.60;;;18.20;45.30;;;;;;5026008;28;20046;-80
2021/12/28 09:56:51;;;;;;;1.92;0.47;;;18.10;45.10;;;;;;5008592;28;20042;-79
2021/12/28 09:59:17;;;;;;;2.35;0.50;;;18.10;45.10;;;;;;5006195;28;20053;-80
2021/12/28 10:01:42;;;;;;;1.33;0.50;;;19.40;45.90;;;;;;5007995;28;20038;-79
2021/12/28 10:04:08;;;;;;;1.38;0.57;;;18.20;45.30;;;;;;5010152;28;20072;-83
2021/12/28 10:06:33;;;;;;;1.67;0.50;;;18.20;45.30;;;;;;5032660;28;20470;-84
2021/12/28 10:09:10;;;;;;;2.17;0.40;;;18.20;45.30;;;;;;5030137;28;20632;-83
2021/12/28 10:11:38;;;;;;;2.00;0.60;;;18.20;45.30;;;;;;5028260;28;20195;-85
2021/12/28 10:14:11;;;;;;;3.65;0.55;;;18.20;45.30;;;;;;5020569;28;20120;-79
2021/12/28 10:16:47;;;;;;;4.97;0.65;;;18.20;45.30;;;;;;5019314;28;20057;-85
2021/12/28 10:19:40;;;;;;;2.85;0.70;;;18.20;45.70;;;;;;5020926;28;20408;-86
2021/12/28 10:22:43;;;;;;;;;;;18.20;45.70;;;;;;5015580;28;20159;-86
2021/12/28 10:25:20;;;;;;;3.75;0.90;;;18.20;45.80;;;;;;5004890;28;20023;-89
2021/12/28 10:27:49;;;;;;;9.38;0.82;;;18.20;45.70;;;;;;5000188;28;20136;-85
2021/12/28 10:30:14;;;;;;;4.53;0.90;;;18.20;45.90;;;;;;5002919;28;20117;-84
2021/12/28 10:32:42;;;;;;;3.45;0.70;;;18.20;45.90;;;;;;5000173;28;20054;-84
2021/12/28 10:35:12;;;;;;;3.80;0.57;;;18.70;46.20;;;;;;5005112;28;20058;-88
2021/12/28 10:37:39;;;;;;;4.88;0.90;;;18.20;46.00;;;;;;5001773;28;20041;-87
2021/12/28 10:40:07;;;;;;;1.92;0.73;;;18.20;46.00;;;;;;5009114;28;20042;-88
2021/12/28 10:42:43;;;;;;;2.25;0.70;;;18.20;46.10;;;;;;5007171;28;20560;-88
2021/12/28 10:45:12;;;;;;;2.10;0.60;;;18.20;46.10;;;;;;5005680;28;20444;-89
2021/12/28 10:47:37;;;;;;;4.22;0.63;;;18.20;46.10;;;;;;5007570;28;20115;-91
2021/12/28 10:50:26;;;;;;;2.88;0.63;;;18.20;46.10;;;;;;5004999;28;20505;-88
2021/12/28 10:53:10;;;;;;;7.45;0.70;;;18.20;46.10;;;;;;5005361;28;20125;-87
2021/12/28 10:55:36;;;;;;;5.28;0.90;;;18.20;46.10;;;;;;5007772;28;20050;-89
2021/12/28 10:58:03;;;;;;;2.83;0.63;;;18.20;46.10;;;;;;5006257;28;20053;-89
2021/12/28 11:00:36;;;;;;;4.50;0.60;;;18.20;46.10;;;;;;5004893;28;20049;-88
2021/12/28 11:03:14;;;;;;;2.13;0.60;;;18.20;46.10;;;;;;5005529;28;20046;-90
2021/12/28 11:05:40;;;;;;;2.42;0.70;;;18.20;46.10;;;;;;4997637;28;20050;-89
2021/12/28 11:08:08;;;;;;;2.38;0.70;;;18.20;46.10;;;;;;5000974;28;20061;-87
2021/12/28 11:10:48;;;;;;;2.58;0.60;;;18.20;46.10;;;;;;5003978;28;20042;-89
2021/12/28 11:13:14;;;;;;;1.30;0.40;;;18.20;46.10;;;;;;5008537;28;20064;-88
2021/12/28 11:15:44;;;;;;;3.45;0.60;;;18.20;46.80;;;;;;5007630;28;20037;-89
2021/12/28 11:18:21;;;;;;;1.98;0.65;;;18.20;46.10;;;;;;5009767;28;20045;-89
2021/12/28 11:20:48;;;;;;;2.15;0.70;;;18.10;46.10;;;;;;5008106;28;20065;-91
2021/12/28 11:23:18;;;;;;;1.88;0.43;;;18.10;46.80;;;;;;5009400;28;20058;-88
2021/12/28 11:26:20;;;;;;;2.49;0.50;;;18.10;46.10;;;;;;4931288;28;10001618;-88
2021/12/28 11:29:06;;;;;;;1.98;0.60;;;18.10;46.10;;;;;;4997312;28;20267;-89
2021/12/28 11:31:38;;;;;;;2.03;0.60;;;18.10;46.10;;;;;;5002958;28;20073;-89
2021/12/28 11:34:06;;;;;;;1.33;0.50;;;18.10;46.10;;;;;;5007930;28;20122;-88
2021/12/28 11:36:40;;;;;;;3.08;0.68;;;18.30;46.20;;;;;;5008806;28;20185;-88
2021/12/28 11:39:08;;;;;;;1.35;0.55;;;19.10;46.60;;;;;;5005337;28;20049;-88
2021/12/28 11:41:34;;;;;;;1.55;0.50;;;18.00;46.00;;;;;;5008315;28;20046;-88
2021/12/28 11:44:00;;;;;;;1.88;0.70;;;18.00;46.00;;;;;;5005003;28;20045;-88
2021/12/28 11:46:26;;;;;;;2.50;0.60;;;18.00;46.10;;;;;;4991778;28;20046;-88
2021/12/28 11:48:51;;;;;;;1.00;0.38;;;18.00;46.10;;;;;;4999941;28;20065;-88
2021/12/28 11:51:17;;;;;;;1.95;0.50;;;18.00;46.10;;;;;;5002184;28;20133;-89
2021/12/28 11:53:44;;;;;;;3.45;0.68;;;18.00;46.10;;;;;;5007618;28;20073;-88
2021/12/28 11:56:10;;;;;;;2.03;0.52;;;18.00;46.10;;;;;;4974036;28;20047;-86
2021/12/28 11:58:56;;;;;;;1.70;0.50;;;19.30;46.90;;;;;;5001885;28;20594;-85
2021/12/28 12:01:42;;;;;;;1.52;0.45;;;17.90;46.20;;;;;;5022291;28;20107;-87
2021/12/28 12:04:45;;;;;;;1.70;0.60;;;18.00;46.20;;;;;;4999838;28;20100;-87
2021/12/28 12:07:13;;;;;;;2.75;0.70;;;17.90;46.20;;;;;;4948039;28;20550;-87
2021/12/28 12:09:52;;;;;;;2.30;0.43;;;17.90;46.20;;;;;;4990121;28;20050;-89
2021/12/28 12:12:24;;;;;;;3.05;0.50;;;17.90;46.20;;;;;;5009718;28;20069;-89
2021/12/28 12:14:50;;;;;;;1.30;0.47;;;17.90;46.20;;;;;;4996567;28;20493;-80
2021/12/28 12:17:28;;;;;;;2.17;0.60;;;17.90;46.20;;;;;;4987432;28;20061;-81
2021/12/28 12:20:19;;;;;;;0.77;0.45;;;17.90;46.30;;;;;;4987693;28;20142;-90
2021/12/28 12:23:08;;;;;;;1.50;0.60;;;17.90;46.30;;;;;;4983542;28;20525;-91
2021/12/28 12:26:10;;;;;;;2.00;0.40;;;17.90;46.30;;;;;;4997781;28;20053;-89
2021/12/28 12:28:43;;;;;;;0.95;0.40;;;17.90;46.30;;;;;;4962158;28;20050;-88
2021/12/28 12:31:12;;;;;;;2.53;0.60;;;17.90;46.30;;;;;;4991920;28;20129;-89
2021/12/28 12:33:43;;;;;;;1.38;0.57;;;17.80;46.20;;;;;;4998580;28;20093;-89
2021/12/28 12:36:17;;;;;;;1.10;0.30;;;17.80;46.20;;;;;;5030042;28;20041;-89
2021/12/28 12:38:43;;;;;;;1.08;0.40;;;17.90;46.30;;;;;;5033706;28;20606;-90
2021/12/28 12:41:20;;;;;;;1.45;0.40;;;19.00;46.90;;;;;;5007871;28;20227;-89
2021/12/28 12:43:48;;;;;;;2.85;0.52;;;17.80;46.30;;;;;;5007901;28;20188;-88
2021/12/28 12:46:32;;;;;;;0.90;0.30;;;17.80;46.30;;;;;;5007508;28;20525;-89
2021/12/28 12:49:04;;;;;;;1.55;0.40;;;17.80;46.30;;;;;;5009632;28;20061;-88
2021/12/28 12:51:33;;;;;;;2.38;0.50;;;17.80;46.30;;;;;;5007755;28;20042;-90